Time;durP1;ratioP1;P1;durP2;ratioP2;P2;SDS_P1;SDS_P2;PMS_P1;PMS_P2;Temp;Humidity;BMP_temperature;BMP_pressure;BME280_temperature;BME280_humidity;BME280_pressure;Samples;Min_cycle;Max_cycle;Signal;HPM_P1;HPM_P2
2021/12/14 06:49:39;;;;;;;9.63;7.22;;;;;;;;;;10602385;27;20441;-85
2021/12/14 06:54:44;;;;;;;6.32;5.25;;;;;;;;;;10602239;28;20032;-85
2021/12/14 06:59:47;;;;;;;8.32;6.38;;;;;;;;;;10603761;28;20024;-85
2021/12/14 07:04:48;;;;;;;5.18;4.25;;;;;;;;;;10604810;28;20024;-85
2021/12/14 07:09:51;;;;;;;5.80;4.93;;;;;;;;;;10604233;28;20019;-85
2021/12/14 07:14:53;;;;;;;9.55;8.23;;;;;;;;;;10604100;28;20119;-86
2021/12/14 07:19:56;;;;;;;10.40;9.20;;;;;;;;;;10616469;28;20139;-85
2021/12/14 07:25:14;;;;;;;8.95;7.82;;;;;;;;;;10617760;28;20061;-85
2021/12/14 07:30:37;;;;;;;5.47;4.53;;;;;;;;;;10620584;28;20036;-85
2021/12/14 07:35:40;;;;;;;6.10;5.28;;;;;;;;;;10623801;28;20063;-86
2021/12/14 07:40:43;;;;;;;14.57;12.02;;;;;;;;;;10617673;28;20039;-86
2021/12/14 07:45:44;;;;;;;7.43;5.95;;;;;;;;;;10608800;28;20099;-86
2021/12/14 07:50:53;;;;;;;7.65;6.03;;;;;;;;;;10607246;28;20024;-86
2021/12/14 07:55:54;;;;;;;13.25;11.82;;;;;;;;;;10607067;28;20042;-85
2021/12/14 08:00:55;;;;;;;9.43;7.18;;;;;;;;;;10562958;28;20143;-87
2021/12/14 08:05:56;;;;;;;5.57;3.60;;;;;;;;;;10551121;28;20032;-87
2021/12/14 08:11:16;;;;;;;9.13;6.70;;;;;;;;;;10552437;28;20469;-86
2021/12/14 08:16:18;;;;;;;8.97;7.47;;;;;;;;;;10555124;28;20028;-85
2021/12/14 08:21:21;;;;;;;10.05;8.02;;;;;;;;;;10554223;28;20016;-86
2021/12/14 08:26:24;;;;;;;10.73;8.57;;;;;;;;;;10553834;28;20056;-86
2021/12/14 08:31:32;;;;;;;9.93;8.60;;;;;;;;;;10549441;28;20054;-86
2021/12/14 08:36:38;;;;;;;11.93;9.02;;;;;;;;;;10547451;28;20473;-87
2021/12/14 08:41:47;;;;;;;13.20;9.15;;;;;;;;;;10545540;28;20024;-86
2021/12/14 08:46:51;;;;;;;15.35;13.60;;;;;;;;;;10556526;28;20043;-86
2021/12/14 08:51:52;;;;;;;11.75;10.27;;;;;;;;;;10549335;28;20114;-86
2021/12/14 08:56:55;;;;;;;12.18;9.50;;;;;;;;;;10550430;28;20549;-86
2021/12/14 09:02:00;;;;;;;15.23;12.25;;;;;;;;;;10553576;28;20465;-86
2021/12/14 09:07:03;;;;;;;17.38;13.68;;;;;;;;;;10572902;28;20012;-82
2021/12/14 09:12:10;;;;;;;8.43;7.53;;;;;;;;;;10573899;28;20031;-86
2021/12/14 09:17:12;;;;;;;8.93;8.02;;;;;;;;;;10554011;28;20046;-87
2021/12/14 09:22:16;;;;;;;15.45;11.85;;;;;;;;;;10551942;28;20038;-87
2021/12/14 09:27:20;;;;;;;10.57;9.45;;;;;;;;;;10556924;28;20027;-85
2021/12/14 09:32:26;;;;;;;10.10;8.82;;;;;;;;;;10553077;28;20047;-84
2021/12/14 09:37:28;;;;;;;13.75;12.13;;;;;;;;;;10557121;28;20051;-84
2021/12/14 09:42:32;;;;;;;15.43;12.32;;;;;;;;;;10569399;28;20039;-85
2021/12/14 09:47:33;;;;;;;15.38;12.70;;;;;;;;;;10549748;28;20081;-84
2021/12/14 09:52:36;;;;;;;12.98;9.35;;;;;;;;;;10553213;28;20077;-85
2021/12/14 09:57:43;;;;;;;12.65;8.68;;;;;;;;;;10553384;28;20058;-86
2021/12/14 10:02:47;;;;;;;13.63;10.98;;;;;;;;;;10568919;28;20031;-86
2021/12/14 10:07:49;;;;;;;14.43;11.45;;;;;;;;;;10578552;28;20024;-87
2021/12/14 10:12:53;;;;;;;14.13;12.10;;;;;;;;;;10578307;28;20008;-87
2021/12/14 10:17:56;;;;;;;12.82;11.38;;;;;;;;;;10572351;28;20056;-85
2021/12/14 10:22:58;;;;;;;16.48;12.15;;;;;;;;;;10558146;28;20154;-87
2021/12/14 10:27:59;;;;;;;14.52;11.82;;;;;;;;;;10557872;28;20054;-86
2021/12/14 10:33:01;;;;;;;13.20;11.52;;;;;;;;;;10555851;28;20028;-86
2021/12/14 10:38:18;;;;;;;13.02;11.65;;;;;;;;;;10555708;28;20038;-87
2021/12/14 10:43:20;;;;;;;12.25;10.88;;;;;;;;;;10558004;28;20505;-86
2021/12/14 10:48:23;;;;;;;14.50;11.05;;;;;;;;;;10557336;28;20531;-86
2021/12/14 10:53:25;;;;;;;12.63;11.15;;;;;;;;;;10557500;28;20169;-86
2021/12/14 10:58:27;;;;;;;13.48;11.48;;;;;;;;;;10559576;28;20123;-86
2021/12/14 11:03:29;;;;;;;14.40;11.82;;;;;;;;;;10555634;28;20024;-84
2021/12/14 11:08:50;;;;;;;15.27;12.10;;;;;;;;;;10555057;28;20126;-84
2021/12/14 11:14:01;;;;;;;14.30;12.20;;;;;;;;;;10554411;28;20444;-86
2021/12/14 11:19:02;;;;;;;;;;;;;;;;;;10555190;28;20051;-86
2021/12/14 11:24:03;;;;;;;13.90;11.68;;;;;;;;;;10553439;28;19904;-85
2021/12/14 11:29:10;;;;;;;16.25;13.02;;;;;;;;;;10553234;28;20504;-85
2021/12/14 11:34:13;;;;;;;14.98;11.32;;;;;;;;;;10564094;28;20555;-84
2021/12/14 11:39:23;;;;;;;13.05;11.07;;;;;;;;;;10576728;28;20035;-85
2021/12/14 11:44:29;;;;;;;16.70;12.65;;;;;;;;;;10574010;28;20020;-87
2021/12/14 11:49:41;;;;;;;17.38;12.45;;;;;;;;;;10574417;28;20100;-86
2021/12/14 11:54:46;;;;;;;15.00;11.82;;;;;;;;;;10571022;28;20024;-85
2021/12/14 11:59:49;;;;;;;15.98;14.27;;;;;;;;;;10563780;28;20035;-84
2021/12/14 12:04:50;;;;;;;16.73;14.27;;;;;;;;;;10566962;28;20076;-84
2021/12/14 12:09:53;;;;;;;14.88;12.88;;;;;;;;;;10561660;28;20105;-83
2021/12/14 12:14:59;;;;;;;13.95;12.32;;;;;;;;;;10561560;28;20016;-85
2021/12/14 12:20:05;;;;;;;15.88;12.23;;;;;;;;;;10559599;28;20030;-83
2021/12/14 12:25:08;;;;;;;13.82;12.32;;;;;;;;;;10558217;28;20505;-85
2021/12/14 12:30:13;;;;;;;15.05;13.35;;;;;;;;;;10557271;28;20024;-85
2021/12/14 12:35:20;;;;;;;13.85;12.45;;;;;;;;;;10522907;28;20032;-84
2021/12/14 12:40:32;;;;;;;19.27;16.42;;;;;;;;;;10510790;28;20489;-82
2021/12/14 12:45:33;;;;;;;12.57;11.18;;;;;;;;;;10509157;28;20475;-82
2021/12/14 12:50:34;;;;;;;24.58;19.42;;;;;;;;;;10510307;28;20383;-82
2021/12/14 12:55:37;;;;;;;15.48;12.38;;;;;;;;;;10509178;28;20036;-82
2021/12/14 13:00:42;;;;;;;12.43;11.07;;;;;;;;;;10510227;28;20042;-81
2021/12/14 13:05:45;;;;;;;13.15;11.20;;;;;;;;;;10512674;28;20340;-82
2021/12/14 13:11:05;;;;;;;21.40;17.45;;;;;;;;;;10512129;28;20071;-79
2021/12/14 13:16:25;;;;;;;19.45;15.73;;;;;;;;;;10515542;28;20028;-83
2021/12/14 13:21:32;;;;;;;14.45;12.05;;;;;;;;;;10539608;28;20038;-81
2021/12/14 13:26:47;;;;;;;15.18;12.02;;;;;;;;;;10533911;28;20040;-84
2021/12/14 13:31:53;;;;;;;17.80;15.30;;;;;;;;;;10521477;28;20475;-82
2021/12/14 13:36:55;;;;;;;17.30;13.75;;;;;;;;;;10536438;28;20038;-81
2021/12/14 13:41:59;;;;;;;23.42;18.42;;;;;;;;;;10513501;28;20431;-81
2021/12/14 13:47:01;;;;;;;48.50;36.70;;;;;;;;;;10507579;28;20036;-81
2021/12/14 13:52:04;;;;;;;20.80;17.17;;;;;;;;;;10506883;28;20545;-80
2021/12/14 13:57:05;;;;;;;20.65;16.67;;;;;;;;;;10506420;28;20025;-80
2021/12/14 14:07:42;;;;;;;14.43;12.93;;;;;;;;;;10507664;28;20040;-82
2021/12/14 14:13:09;;;;;;;15.07;12.52;;;;;;;;;;10509089;28;20424;-81
2021/12/14 14:18:11;;;;;;;22.20;18.60;;;;;;;;;;10534226;28;20078;-82
2021/12/14 14:23:17;;;;;;;16.08;13.75;;;;;;;;;;10532064;28;20105;-81
2021/12/14 14:28:35;;;;;;;15.75;13.70;;;;;;;;;;10530831;28;20036;-81
2021/12/14 14:33:44;;;;;;;21.63;18.60;;;;;;;;;;10559464;28;20069;-81
2021/12/14 14:38:48;;;;;;;13.50;10.48;;;;;;;;;;10561106;28;20044;-80
2021/12/14 14:44:00;;;;;;;15.80;12.88;;;;;;;;;;10535785;28;20028;-82
2021/12/14 14:49:02;;;;;;;15.80;12.80;;;;;;;;;;10539578;28;20008;-87
2021/12/14 14:54:23;;;;;;;16.30;13.80;;;;;;;;;;10561750;28;20016;-83
2021/12/14 14:59:24;;;;;;;;;;;;;;;;;;10538885;28;20026;-82
2021/12/14 15:04:25;;;;;;;15.35;13.23;;;;;;;;;;10535455;28;19904;-83
2021/12/14 15:09:28;;;;;;;16.70;13.13;;;;;;;;;;10557019;28;20044;-86
2021/12/14 15:14:31;;;;;;;15.25;12.68;;;;;;;;;;10550273;28;20023;-83
2021/12/14 15:19:41;;;;;;;14.95;12.90;;;;;;;;;;10546817;28;20024;-84
2021/12/14 15:24:42;;;;;;;14.93;11.73;;;;;;;;;;10541887;28;20020;-84
2021/12/14 15:29:46;;;;;;;14.90;11.40;;;;;;;;;;10555433;28;20024;-84
2021/12/14 15:35:06;;;;;;;13.98;11.15;;;;;;;;;;10566307;28;20405;-83
2021/12/14 15:40:16;;;;;;;15.35;10.05;;;;;;;;;;10556995;28;20134;-84
2021/12/14 15:45:22;;;;;;;11.50;9.73;;;;;;;;;;10543211;28;20036;-81
2021/12/14 15:50:23;;;;;;;13.40;9.48;;;;;;;;;;10542039;28;20030;-83
2021/12/14 15:55:31;;;;;;;11.88;10.20;;;;;;;;;;10545969;28;20482;-82
2021/12/14 16:00:32;;;;;;;11.05;9.70;;;;;;;;;;10545185;28;20020;-82
2021/12/14 16:05:34;;;;;;;11.90;10.07;;;;;;;;;;10551080;28;20027;-85
2021/12/14 16:10:35;;;;;;;13.30;9.40;;;;;;;;;;10559301;28;20026;-84
2021/12/14 16:15:37;;;;;;;12.02;9.57;;;;;;;;;;10548162;28;20035;-85
2021/12/14 16:20:40;;;;;;;10.05;8.90;;;;;;;;;;10564378;28;20082;-83
2021/12/14 16:25:44;;;;;;;11.32;8.55;;;;;;;;;;10542780;28;20119;-84
2021/12/14 16:30:51;;;;;;;11.60;8.50;;;;;;;;;;10546513;28;20024;-84
2021/12/14 16:36:04;;;;;;;12.25;8.07;;;;;;;;;;10539681;28;20028;-85
2021/12/14 16:41:06;;;;;;;8.70;6.75;;;;;;;;;;10533367;28;20386;-81
2021/12/14 16:46:11;;;;;;;11.00;8.32;;;;;;;;;;10538401;28;20042;-81
2021/12/14 16:51:13;;;;;;;10.00;7.88;;;;;;;;;;10536680;28;20028;-82
2021/12/14 16:56:17;;;;;;;11.30;8.25;;;;;;;;;;10535024;28;20024;-82
2021/12/14 17:01:18;;;;;;;11.13;8.75;;;;;;;;;;10535824;28;20520;-81
2021/12/14 17:06:19;;;;;;;11.13;8.68;;;;;;;;;;10532500;28;20032;-78
2021/12/14 17:11:21;;;;;;;10.45;9.32;;;;;;;;;;10563515;28;20110;-81
2021/12/14 17:16:27;;;;;;;13.77;10.90;;;;;;;;;;10534679;28;20108;-80
2021/12/14 17:21:50;;;;;;;11.35;8.52;;;;;;;;;;10540722;28;20020;-78
2021/12/14 17:26:59;;;;;;;9.85;7.30;;;;;;;;;;10539029;28;20094;-82
2021/12/14 17:32:05;;;;;;;10.70;7.95;;;;;;;;;;10559505;28;20471;-80
2021/12/14 17:37:10;;;;;;;12.98;8.80;;;;;;;;;;10533138;28;20043;-80
2021/12/14 17:42:14;;;;;;;15.93;12.65;;;;;;;;;;10533516;28;20153;-80
2021/12/14 17:47:45;;;;;;;13.63;11.60;;;;;;;;;;10515776;28;20040;-80
2021/12/14 17:52:48;;;;;;;6.90;5.50;;;;;;;;;;10528875;28;20506;-82
2021/12/14 17:57:57;;;;;;;10.20;7.35;;;;;;;;;;10532698;28;20115;-82
2021/12/14 18:03:02;;;;;;;10.82;7.95;;;;;;;;;;10536421;28;20028;-80
2021/12/14 18:08:11;;;;;;;9.60;7.68;;;;;;;;;;10535199;28;20024;-81
2021/12/14 18:13:32;;;;;;;11.15;7.68;;;;;;;;;;10535548;28;20024;-81
2021/12/14 18:23:58;;;;;;;10.02;7.57;;;;;;;;;;10554406;28;20047;-81
2021/12/14 18:29:01;;;;;;;10.30;7.65;;;;;;;;;;10556944;28;20031;-81
2021/12/14 18:34:04;;;;;;;6.68;5.60;;;;;;;;;;10555561;28;20109;-81
2021/12/14 18:39:21;;;;;;;;;;;;;;;;;;;;;
2021/12/14 18:44:24;;;;;;;12.90;9.55;;;;;;;;;;10557123;28;20024;-81
2021/12/14 18:49:40;;;;;;;12.15;8.85;;;;;;;;;;10543560;28;20498;-81
2021/12/14 18:54:44;;;;;;;19.98;13.95;;;;;;;;;;10539974;28;20574;-81
2021/12/14 18:59:48;;;;;;;9.52;7.10;;;;;;;;;;10550149;28;20474;-81
2021/12/14 19:04:52;;;;;;;11.35;8.45;;;;;;;;;;10532397;28;20494;-82
2021/12/14 19:09:53;;;;;;;14.40;8.32;;;;;;;;;;10532413;28;20028;-81
2021/12/14 19:15:09;;;;;;;8.57;6.05;;;;;;;;;;10533314;28;20123;-81
2021/12/14 19:20:11;;;;;;;7.55;6.15;;;;;;;;;;10539086;28;20120;-82
2021/12/14 19:25:17;;;;;;;12.55;8.80;;;;;;;;;;10545907;28;20043;-81
2021/12/14 19:30:22;;;;;;;10.43;7.53;;;;;;;;;;10557590;28;20024;-82
2021/12/14 19:35:26;;;;;;;12.77;9.27;;;;;;;;;;10533700;28;20482;-81
2021/12/14 19:40:29;;;;;;;11.98;8.93;;;;;;;;;;10535785;28;20040;-81
2021/12/14 19:45:32;;;;;;;13.02;7.60;;;;;;;;;;10557719;28;20033;-81
2021/12/14 19:50:33;;;;;;;12.35;8.43;;;;;;;;;;10563787;28;20075;-83
2021/12/14 19:55:35;;;;;;;14.15;8.10;;;;;;;;;;10556507;28;20074;-81
2021/12/14 20:00:36;;;;;;;13.70;9.10;;;;;;;;;;10546093;28;20028;-84
2021/12/14 20:05:39;;;;;;;10.23;7.18;;;;;;;;;;10573612;28;20032;-85
2021/12/14 20:10:42;;;;;;;16.38;11.85;;;;;;;;;;10557850;28;20103;-85
2021/12/14 20:15:50;;;;;;;11.85;8.27;;;;;;;;;;10544201;28;20020;-85
2021/12/14 20:20:53;;;;;;;12.30;8.68;;;;;;;;;;10544857;28;20046;-85
2021/12/14 20:25:57;;;;;;;11.82;7.65;;;;;;;;;;10543130;28;20082;-87
2021/12/14 20:31:07;;;;;;;13.48;8.93;;;;;;;;;;10544836;28;20020;-85
2021/12/14 20:36:12;;;;;;;12.02;9.20;;;;;;;;;;10544539;28;20028;-85
2021/12/14 20:41:18;;;;;;;14.05;8.73;;;;;;;;;;10560410;28;20028;-86
2021/12/14 20:46:20;;;;;;;10.52;8.95;;;;;;;;;;10558202;28;20605;-85
2021/12/14 20:51:23;;;;;;;15.07;12.18;;;;;;;;;;10538823;28;20027;-84
2021/12/14 20:56:25;;;;;;;11.95;9.43;;;;;;;;;;10557814;28;20024;-85
2021/12/14 21:01:28;;;;;;;12.48;8.85;;;;;;;;;;10539058;28;20020;-85
2021/12/14 21:06:35;;;;;;;11.00;8.95;;;;;;;;;;10554477;28;20024;-85
2021/12/14 21:11:37;;;;;;;15.82;11.95;;;;;;;;;;10535010;28;20441;-85
